sensor_id;sensor_type;location;lat;lon;timestamp;P1;durP1;ratioP1;P2;durP2;ratioP2
53411;SDS011;39307;52.870;13.660;2024-03-29T00:02:16;0.90;;;0.60;;
53411;SDS011;39307;52.870;13.660;2024-03-29T00:04:43;1.00;;;0.80;;
53411;SDS011;39307;52.870;13.660;2024-03-29T00:07:10;0.82;;;0.70;;
53411;SDS011;39307;52.870;13.660;2024-03-29T00:09:37;0.95;;;0.65;;
53411;SDS011;39307;52.870;13.660;2024-03-29T00:12:04;1.17;;;0.82;;
53411;SDS011;39307;52.870;13.660;2024-03-29T00:14:31;1.08;;;0.77;;
53411;SDS011;39307;52.870;13.660;2024-03-29T00:16:58;0.80;;;0.60;;
53411;SDS011;39307;52.870;13.660;2024-03-29T00:19:25;1.00;;;0.60;;
53411;SDS011;39307;52.870;13.660;2024-03-29T00:21:52;0.83;;;0.70;;
53411;SDS011;39307;52.870;13.660;2024-03-29T00:24:19;0.95;;;0.75;;
53411;SDS011;39307;52.870;13.660;2024-03-29T00:26:45;1.00;;;0.80;;
53411;SDS011;39307;52.870;13.660;2024-03-29T00:29:12;0.83;;;0.63;;
53411;SDS011;39307;52.870;13.660;2024-03-29T00:31:39;1.02;;;0.77;;
53411;SDS011;39307;52.870;13.660;2024-03-29T00:34:06;1.25;;;0.80;;
53411;SDS011;39307;52.870;13.660;2024-03-29T00:36:33;1.33;;;0.80;;
53411;SDS011;39307;52.870;13.660;2024-03-29T00:39:00;1.55;;;0.90;;
53411;SDS011;39307;52.870;13.660;2024-03-29T00:41:27;0.90;;;0.80;;
53411;SDS011;39307;52.870;13.660;2024-03-29T00:43:53;1.40;;;0.80;;
53411;SDS011;39307;52.870;13.660;2024-03-29T00:46:20;0.82;;;0.70;;
53411;SDS011;39307;52.870;13.660;2024-03-29T00:48:47;0.90;;;0.60;;
53411;SDS011;39307;52.870;13.660;2024-03-29T00:51:14;1.40;;;0.90;;
53411;SDS011;39307;52.870;13.660;2024-03-29T00:53:41;0.85;;;0.70;;
53411;SDS011;39307;52.870;13.660;2024-03-29T00:56:08;1.10;;;0.70;;
53411;SDS011;39307;52.870;13.660;2024-03-29T00:58:35;1.15;;;0.80;;
53411;SDS011;39307;52.870;13.660;2024-03-29T01:01:01;0.80;;;0.60;;
53411;SDS011;39307;52.870;13.660;2024-03-29T01:03:28;1.33;;;0.80;;
53411;SDS011;39307;52.870;13.660;2024-03-29T01:05:55;1.55;;;0.90;;
53411;SDS011;39307;52.870;13.660;2024-03-29T01:08:22;0.93;;;0.70;;
53411;SDS011;39307;52.870;13.660;2024-03-29T01:10:49;1.15;;;0.73;;
53411;SDS011;39307;52.870;13.660;2024-03-29T01:13:16;0.98;;;0.70;;
53411;SDS011;39307;52.870;13.660;2024-03-29T01:15:43;1.45;;;0.80;;
53411;SDS011;39307;52.870;13.660;2024-03-29T01:18:09;1.10;;;0.80;;
53411;SDS011;39307;52.870;13.660;2024-03-29T01:20:36;1.08;;;0.80;;
53411;SDS011;39307;52.870;13.660;2024-03-29T01:23:03;1.10;;;0.80;;
53411;SDS011;39307;52.870;13.660;2024-03-29T01:25:30;0.98;;;0.70;;
53411;SDS011;39307;52.870;13.660;2024-03-29T01:27:58;0.70;;;0.60;;
53411;SDS011;39307;52.870;13.660;2024-03-29T01:30:25;1.20;;;0.73;;
53411;SDS011;39307;52.870;13.660;2024-03-29T01:32:53;1.30;;;0.75;;
53411;SDS011;39307;52.870;13.660;2024-03-29T01:35:19;1.10;;;0.80;;
53411;SDS011;39307;52.870;13.660;2024-03-29T01:37:46;1.52;;;0.90;;
53411;SDS011;39307;52.870;13.660;2024-03-29T01:40:12;1.33;;;0.80;;
53411;SDS011;39307;52.870;13.660;2024-03-29T01:42:39;1.33;;;0.85;;
53411;SDS011;39307;52.870;13.660;2024-03-29T01:45:05;1.00;;;0.70;;
53411;SDS011;39307;52.870;13.660;2024-03-29T01:47:33;1.10;;;0.80;;
53411;SDS011;39307;52.870;13.660;2024-03-29T01:49:59;1.10;;;0.80;;
53411;SDS011;39307;52.870;13.660;2024-03-29T01:52:27;1.37;;;0.80;;
53411;SDS011;39307;52.870;13.660;2024-03-29T01:54:54;1.10;;;0.80;;
53411;SDS011;39307;52.870;13.660;2024-03-29T01:57:22;1.67;;;0.90;;
53411;SDS011;39307;52.870;13.660;2024-03-29T01:59:49;1.20;;;0.80;;
53411;SDS011;39307;52.870;13.660;2024-03-29T02:02:16;1.23;;;0.80;;
53411;SDS011;39307;52.870;13.660;2024-03-29T02:04:44;1.17;;;0.80;;
53411;SDS011;39307;52.870;13.660;2024-03-29T02:07:12;1.52;;;0.82;;
53411;SDS011;39307;52.870;13.660;2024-03-29T02:09:39;1.42;;;0.88;;
53411;SDS011;39307;52.870;13.660;2024-03-29T02:12:06;1.15;;;0.73;;
53411;SDS011;39307;52.870;13.660;2024-03-29T02:14:33;1.13;;;0.80;;
53411;SDS011;39307;52.870;13.660;2024-03-29T02:17:00;1.42;;;0.80;;
53411;SDS011;39307;52.870;13.660;2024-03-29T02:19:27;1.50;;;0.90;;
53411;SDS011;39307;52.870;13.660;2024-03-29T02:21:54;1.10;;;0.80;;
53411;SDS011;39307;52.870;13.660;2024-03-29T02:24:25;1.05;;;0.70;;
53411;SDS011;39307;52.870;13.660;2024-03-29T02:26:52;1.20;;;0.80;;
53411;SDS011;39307;52.870;13.660;2024-03-29T02:29:23;0.82;;;0.70;;
53411;SDS011;39307;52.870;13.660;2024-03-29T02:31:50;1.25;;;0.80;;
53411;SDS011;39307;52.870;13.660;2024-03-29T02:34:17;0.97;;;0.70;;
53411;SDS011;39307;52.870;13.660;2024-03-29T02:36:43;1.40;;;0.88;;
53411;SDS011;39307;52.870;13.660;2024-03-29T02:39:10;1.10;;;0.80;;
53411;SDS011;39307;52.870;13.660;2024-03-29T02:41:37;0.90;;;0.60;;
53411;SDS011;39307;52.870;13.660;2024-03-29T02:44:03;1.20;;;0.70;;
53411;SDS011;39307;52.870;13.660;2024-03-29T02:46:30;0.98;;;0.70;;
53411;SDS011;39307;52.870;13.660;2024-03-29T02:48:57;1.00;;;0.70;;
53411;SDS011;39307;52.870;13.660;2024-03-29T02:51:23;1.58;;;0.70;;
53411;SDS011;39307;52.870;13.660;2024-03-29T02:53:50;1.33;;;0.80;;
53411;SDS011;39307;52.870;13.660;2024-03-29T02:56:17;1.10;;;0.70;;
53411;SDS011;39307;52.870;13.660;2024-03-29T02:58:44;1.17;;;0.70;;
53411;SDS011;39307;52.870;13.660;2024-03-29T03:01:11;1.15;;;0.80;;
53411;SDS011;39307;52.870;13.660;2024-03-29T03:03:37;1.45;;;0.80;;
53411;SDS011;39307;52.870;13.660;2024-03-29T03:06:04;1.48;;;0.80;;
53411;SDS011;39307;52.870;13.660;2024-03-29T03:08:31;1.40;;;0.70;;
53411;SDS011;39307;52.870;13.660;2024-03-29T03:10:58;1.00;;;0.63;;
53411;SDS011;39307;52.870;13.660;2024-03-29T03:13:28;1.08;;;0.80;;
53411;SDS011;39307;52.870;13.660;2024-03-29T03:15:56;1.77;;;0.80;;
53411;SDS011;39307;52.870;13.660;2024-03-29T03:18:22;1.40;;;0.80;;
53411;SDS011;39307;52.870;13.660;2024-03-29T03:20:52;1.15;;;0.65;;
53411;SDS011;39307;52.870;13.660;2024-03-29T03:23:22;0.90;;;0.70;;
53411;SDS011;39307;52.870;13.660;2024-03-29T03:25:59;1.10;;;0.80;;
53411;SDS011;39307;52.870;13.660;2024-03-29T03:28:29;1.38;;;0.70;;
53411;SDS011;39307;52.870;13.660;2024-03-29T03:30:56;1.13;;;0.70;;
53411;SDS011;39307;52.870;13.660;2024-03-29T03:33:23;1.05;;;0.70;;
53411;SDS011;39307;52.870;13.660;2024-03-29T03:35:49;1.30;;;0.70;;
53411;SDS011;39307;52.870;13.660;2024-03-29T03:38:16;1.23;;;0.80;;
53411;SDS011;39307;52.870;13.660;2024-03-29T03:40:43;0.85;;;0.63;;
53411;SDS011;39307;52.870;13.660;2024-03-29T03:43:10;1.52;;;0.80;;
53411;SDS011;39307;52.870;13.660;2024-03-29T03:45:40;1.30;;;0.80;;
53411;SDS011;39307;52.870;13.660;2024-03-29T03:48:07;1.27;;;0.70;;
53411;SDS011;39307;52.870;13.660;2024-03-29T03:50:35;1.33;;;0.70;;
53411;SDS011;39307;52.870;13.660;2024-03-29T03:53:03;1.38;;;0.77;;
53411;SDS011;39307;52.870;13.660;2024-03-29T03:55:30;1.00;;;0.70;;
53411;SDS011;39307;52.870;13.660;2024-03-29T03:57:57;0.90;;;0.60;;
53411;SDS011;39307;52.870;13.660;2024-03-29T04:00:23;0.90;;;0.50;;
53411;SDS011;39307;52.870;13.660;2024-03-29T04:02:51;1.02;;;0.70;;
53411;SDS011;39307;52.870;13.660;2024-03-29T04:05:18;0.70;;;0.60;;
53411;SDS011;39307;52.870;13.660;2024-03-29T04:07:46;1.30;;;0.75;;
53411;SDS011;39307;52.870;13.660;2024-03-29T04:10:13;1.27;;;0.80;;
53411;SDS011;39307;52.870;13.660;2024-03-29T04:12:40;1.13;;;0.70;;
53411;SDS011;39307;52.870;13.660;2024-03-29T04:15:07;1.20;;;0.60;;
53411;SDS011;39307;52.870;13.660;2024-03-29T04:17:34;1.30;;;0.70;;
53411;SDS011;39307;52.870;13.660;2024-03-29T04:20:01;0.90;;;0.63;;
53411;SDS011;39307;52.870;13.660;2024-03-29T04:22:29;1.05;;;0.68;;
53411;SDS011;39307;52.870;13.660;2024-03-29T04:24:56;1.00;;;0.70;;
53411;SDS011;39307;52.870;13.660;2024-03-29T04:27:23;1.20;;;0.70;;
53411;SDS011;39307;52.870;13.660;2024-03-29T04:29:54;1.00;;;0.70;;
53411;SDS011;39307;52.870;13.660;2024-03-29T04:32:22;1.15;;;0.68;;
53411;SDS011;39307;52.870;13.660;2024-03-29T04:34:49;1.05;;;0.75;;
53411;SDS011;39307;52.870;13.660;2024-03-29T04:37:16;1.60;;;0.80;;
53411;SDS011;39307;52.870;13.660;2024-03-29T04:39:43;1.00;;;0.70;;
53411;SDS011;39307;52.870;13.660;2024-03-29T04:42:11;1.17;;;0.70;;
53411;SDS011;39307;52.870;13.660;2024-03-29T04:44:38;1.10;;;0.70;;
53411;SDS011;39307;52.870;13.660;2024-03-29T04:47:05;1.20;;;0.70;;
53411;SDS011;39307;52.870;13.660;2024-03-29T04:49:32;1.45;;;0.80;;
53411;SDS011;39307;52.870;13.660;2024-03-29T04:51:59;0.98;;;0.70;;
53411;SDS011;39307;52.870;13.660;2024-03-29T04:54:26;1.35;;;0.65;;
53411;SDS011;39307;52.870;13.660;2024-03-29T04:56:53;1.70;;;0.88;;
53411;SDS011;39307;52.870;13.660;2024-03-29T04:59:22;0.80;;;0.60;;
53411;SDS011;39307;52.870;13.660;2024-03-29T05:01:49;1.08;;;0.68;;
53411;SDS011;39307;52.870;13.660;2024-03-29T05:04:19;0.90;;;0.68;;
53411;SDS011;39307;52.870;13.660;2024-03-29T05:06:46;1.27;;;0.70;;
53411;SDS011;39307;52.870;13.660;2024-03-29T05:09:13;0.98;;;0.60;;
53411;SDS011;39307;52.870;13.660;2024-03-29T05:11:40;0.82;;;0.60;;
53411;SDS011;39307;52.870;13.660;2024-03-29T05:14:07;0.75;;;0.60;;
53411;SDS011;39307;52.870;13.660;2024-03-29T05:16:33;0.95;;;0.70;;
53411;SDS011;39307;52.870;13.660;2024-03-29T05:19:00;1.23;;;0.70;;
53411;SDS011;39307;52.870;13.660;2024-03-29T05:21:27;1.45;;;0.75;;
53411;SDS011;39307;52.870;13.660;2024-03-29T05:23:54;1.15;;;0.57;;
53411;SDS011;39307;52.870;13.660;2024-03-29T05:26:20;1.25;;;0.70;;
53411;SDS011;39307;52.870;13.660;2024-03-29T05:28:47;1.13;;;0.70;;
53411;SDS011;39307;52.870;13.660;2024-03-29T05:31:14;1.50;;;0.70;;
53411;SDS011;39307;52.870;13.660;2024-03-29T05:33:41;1.27;;;0.77;;
53411;SDS011;39307;52.870;13.660;2024-03-29T05:36:08;0.73;;;0.52;;
53411;SDS011;39307;52.870;13.660;2024-03-29T05:38:35;1.05;;;0.70;;
53411;SDS011;39307;52.870;13.660;2024-03-29T05:41:02;1.10;;;0.60;;
53411;SDS011;39307;52.870;13.660;2024-03-29T05:43:29;0.80;;;0.60;;
53411;SDS011;39307;52.870;13.660;2024-03-29T05:45:56;1.00;;;0.70;;
53411;SDS011;39307;52.870;13.660;2024-03-29T05:48:23;1.20;;;0.70;;
53411;SDS011;39307;52.870;13.660;2024-03-29T05:50:50;0.88;;;0.63;;
53411;SDS011;39307;52.870;13.660;2024-03-29T05:53:17;1.40;;;0.80;;
53411;SDS011;39307;52.870;13.660;2024-03-29T05:55:44;1.08;;;0.70;;
53411;SDS011;39307;52.870;13.660;2024-03-29T05:58:11;1.00;;;0.70;;
53411;SDS011;39307;52.870;13.660;2024-03-29T06:00:38;1.20;;;0.70;;
53411;SDS011;39307;52.870;13.660;2024-03-29T06:03:05;1.13;;;0.68;;
53411;SDS011;39307;52.870;13.660;2024-03-29T06:05:32;1.13;;;0.70;;
53411;SDS011;39307;52.870;13.660;2024-03-29T06:07:58;1.27;;;0.63;;
53411;SDS011;39307;52.870;13.660;2024-03-29T06:10:25;0.93;;;0.70;;
53411;SDS011;39307;52.870;13.660;2024-03-29T06:12:52;1.40;;;0.70;;
53411;SDS011;39307;52.870;13.660;2024-03-29T06:15:19;0.98;;;0.70;;
53411;SDS011;39307;52.870;13.660;2024-03-29T06:17:46;1.10;;;0.63;;
53411;SDS011;39307;52.870;13.660;2024-03-29T06:20:12;1.20;;;0.70;;
53411;SDS011;39307;52.870;13.660;2024-03-29T06:22:39;0.98;;;0.60;;
53411;SDS011;39307;52.870;13.660;2024-03-29T06:25:06;1.23;;;0.70;;
53411;SDS011;39307;52.870;13.660;2024-03-29T06:27:34;1.63;;;0.82;;
53411;SDS011;39307;52.870;13.660;2024-03-29T06:30:02;1.00;;;0.70;;
53411;SDS011;39307;52.870;13.660;2024-03-29T06:32:30;1.00;;;0.65;;
53411;SDS011;39307;52.870;13.660;2024-03-29T06:34:58;1.48;;;0.70;;
53411;SDS011;39307;52.870;13.660;2024-03-29T06:37:25;1.02;;;0.60;;
53411;SDS011;39307;52.870;13.660;2024-03-29T06:39:52;0.98;;;0.60;;
53411;SDS011;39307;52.870;13.660;2024-03-29T06:42:20;0.70;;;0.50;;
53411;SDS011;39307;52.870;13.660;2024-03-29T06:44:47;0.95;;;0.70;;
53411;SDS011;39307;52.870;13.660;2024-03-29T06:47:14;1.17;;;0.68;;
53411;SDS011;39307;52.870;13.660;2024-03-29T06:49:41;0.73;;;0.60;;
53411;SDS011;39307;52.870;13.660;2024-03-29T06:52:07;0.90;;;0.60;;
53411;SDS011;39307;52.870;13.660;2024-03-29T06:54:34;1.33;;;0.70;;
53411;SDS011;39307;52.870;13.660;2024-03-29T06:57:01;1.20;;;0.70;;
53411;SDS011;39307;52.870;13.660;2024-03-29T06:59:28;0.98;;;0.60;;
53411;SDS011;39307;52.870;13.660;2024-03-29T07:01:55;0.82;;;0.55;;
53411;SDS011;39307;52.870;13.660;2024-03-29T07:04:22;1.10;;;0.65;;
53411;SDS011;39307;52.870;13.660;2024-03-29T07:06:50;1.20;;;0.70;;
53411;SDS011;39307;52.870;13.660;2024-03-29T07:09:20;0.83;;;0.50;;
53411;SDS011;39307;52.870;13.660;2024-03-29T07:11:49;1.00;;;0.70;;
53411;SDS011;39307;52.870;13.660;2024-03-29T07:14:18;1.02;;;0.63;;
53411;SDS011;39307;52.870;13.660;2024-03-29T07:16:45;1.27;;;0.60;;
53411;SDS011;39307;52.870;13.660;2024-03-29T07:19:12;1.17;;;0.70;;
53411;SDS011;39307;52.870;13.660;2024-03-29T07:21:39;1.27;;;0.80;;
53411;SDS011;39307;52.870;13.660;2024-03-29T07:24:06;1.30;;;0.70;;
53411;SDS011;39307;52.870;13.660;2024-03-29T07:26:33;0.93;;;0.68;;
53411;SDS011;39307;52.870;13.660;2024-03-29T07:29:00;1.67;;;0.90;;
53411;SDS011;39307;52.870;13.660;2024-03-29T07:31:27;1.30;;;0.77;;
53411;SDS011;39307;52.870;13.660;2024-03-29T07:33:53;1.55;;;0.80;;
53411;SDS011;39307;52.870;13.660;2024-03-29T07:36:20;1.33;;;0.80;;
53411;SDS011;39307;52.870;13.660;2024-03-29T07:38:47;1.20;;;0.75;;
53411;SDS011;39307;52.870;13.660;2024-03-29T07:41:14;1.20;;;0.75;;
53411;SDS011;39307;52.870;13.660;2024-03-29T07:43:41;0.70;;;0.60;;
53411;SDS011;39307;52.870;13.660;2024-03-29T07:46:22;1.52;;;0.80;;
53411;SDS011;39307;52.870;13.660;2024-03-29T07:48:49;1.33;;;0.77;;
53411;SDS011;39307;52.870;13.660;2024-03-29T07:51:16;1.33;;;0.90;;
53411;SDS011;39307;52.870;13.660;2024-03-29T07:53:43;1.35;;;0.80;;
53411;SDS011;39307;52.870;13.660;2024-03-29T07:56:10;1.88;;;0.80;;
53411;SDS011;39307;52.870;13.660;2024-03-29T07:58:36;1.40;;;0.80;;
53411;SDS011;39307;52.870;13.660;2024-03-29T08:01:03;1.55;;;0.82;;
53411;SDS011;39307;52.870;13.660;2024-03-29T08:03:30;1.50;;;0.80;;
53411;SDS011;39307;52.870;13.660;2024-03-29T08:05:58;1.70;;;0.90;;
53411;SDS011;39307;52.870;13.660;2024-03-29T08:08:26;1.55;;;0.85;;
53411;SDS011;39307;52.870;13.660;2024-03-29T08:10:53;1.33;;;0.80;;
53411;SDS011;39307;52.870;13.660;2024-03-29T08:13:20;1.48;;;0.90;;
53411;SDS011;39307;52.870;13.660;2024-03-29T08:15:47;1.33;;;0.80;;
53411;SDS011;39307;52.870;13.660;2024-03-29T08:18:14;1.40;;;0.82;;
53411;SDS011;39307;52.870;13.660;2024-03-29T08:20:41;1.95;;;0.80;;
53411;SDS011;39307;52.870;13.660;2024-03-29T08:23:08;1.70;;;1.00;;
53411;SDS011;39307;52.870;13.660;2024-03-29T08:25:35;1.23;;;0.80;;
53411;SDS011;39307;52.870;13.660;2024-03-29T08:28:03;1.35;;;0.80;;
53411;SDS011;39307;52.870;13.660;2024-03-29T08:30:29;1.60;;;0.90;;
53411;SDS011;39307;52.870;13.660;2024-03-29T08:32:56;1.58;;;0.90;;
53411;SDS011;39307;52.870;13.660;2024-03-29T08:35:23;1.45;;;0.88;;
53411;SDS011;39307;52.870;13.660;2024-03-29T08:37:49;1.70;;;0.90;;
53411;SDS011;39307;52.870;13.660;2024-03-29T08:40:16;2.00;;;1.05;;
53411;SDS011;39307;52.870;13.660;2024-03-29T08:42:42;1.85;;;0.90;;
53411;SDS011;39307;52.870;13.660;2024-03-29T08:45:09;1.55;;;0.98;;
53411;SDS011;39307;52.870;13.660;2024-03-29T08:47:35;1.52;;;0.93;;
53411;SDS011;39307;52.870;13.660;2024-03-29T08:50:02;1.88;;;0.90;;
53411;SDS011;39307;52.870;13.660;2024-03-29T08:52:30;1.90;;;1.10;;
53411;SDS011;39307;52.870;13.660;2024-03-29T08:54:57;2.15;;;1.00;;
53411;SDS011;39307;52.870;13.660;2024-03-29T08:57:25;1.58;;;0.88;;
53411;SDS011;39307;52.870;13.660;2024-03-29T08:59:52;2.42;;;1.02;;
53411;SDS011;39307;52.870;13.660;2024-03-29T09:02:18;2.30;;;1.00;;
53411;SDS011;39307;52.870;13.660;2024-03-29T09:04:45;1.25;;;0.80;;
53411;SDS011;39307;52.870;13.660;2024-03-29T09:07:12;1.90;;;1.10;;
53411;SDS011;39307;52.870;13.660;2024-03-29T09:09:39;1.88;;;1.00;;
53411;SDS011;39307;52.870;13.660;2024-03-29T09:12:06;2.17;;;1.10;;
53411;SDS011;39307;52.870;13.660;2024-03-29T09:14:34;1.73;;;1.00;;
53411;SDS011;39307;52.870;13.660;2024-03-29T09:17:01;1.98;;;1.10;;
53411;SDS011;39307;52.870;13.660;2024-03-29T09:19:28;1.58;;;0.93;;
53411;SDS011;39307;52.870;13.660;2024-03-29T09:21:55;2.00;;;1.10;;
53411;SDS011;39307;52.870;13.660;2024-03-29T09:24:22;2.35;;;1.27;;
53411;SDS011;39307;52.870;13.660;2024-03-29T09:26:49;2.33;;;1.10;;
53411;SDS011;39307;52.870;13.660;2024-03-29T09:29:16;1.83;;;1.00;;
53411;SDS011;39307;52.870;13.660;2024-03-29T09:31:42;2.22;;;1.20;;
53411;SDS011;39307;52.870;13.660;2024-03-29T09:34:09;1.70;;;1.00;;
53411;SDS011;39307;52.870;13.660;2024-03-29T09:36:36;1.60;;;0.98;;
53411;SDS011;39307;52.870;13.660;2024-03-29T09:39:03;1.20;;;0.90;;
53411;SDS011;39307;52.870;13.660;2024-03-29T09:41:30;1.90;;;0.93;;
53411;SDS011;39307;52.870;13.660;2024-03-29T09:43:57;2.10;;;1.20;;
53411;SDS011;39307;52.870;13.660;2024-03-29T09:46:29;1.88;;;1.10;;
53411;SDS011;39307;52.870;13.660;2024-03-29T09:48:59;1.60;;;0.88;;
53411;SDS011;39307;52.870;13.660;2024-03-29T09:51:26;1.73;;;0.90;;
53411;SDS011;39307;52.870;13.660;2024-03-29T09:53:55;1.90;;;1.00;;
53411;SDS011;39307;52.870;13.660;2024-03-29T09:56:28;2.03;;;1.10;;
53411;SDS011;39307;52.870;13.660;2024-03-29T09:58:55;2.00;;;1.00;;
53411;SDS011;39307;52.870;13.660;2024-03-29T10:01:23;2.00;;;1.10;;
53411;SDS011;39307;52.870;13.660;2024-03-29T10:03:49;1.85;;;1.05;;
53411;SDS011;39307;52.870;13.660;2024-03-29T10:06:18;1.70;;;0.80;;
53411;SDS011;39307;52.870;13.660;2024-03-29T10:08:45;1.85;;;1.00;;
53411;SDS011;39307;52.870;13.660;2024-03-29T10:11:12;2.20;;;0.90;;
53411;SDS011;39307;52.870;13.660;2024-03-29T10:13:40;2.10;;;1.10;;
53411;SDS011;39307;52.870;13.660;2024-03-29T10:16:07;1.80;;;1.15;;
53411;SDS011;39307;52.870;13.660;2024-03-29T10:18:35;1.70;;;1.20;;
53411;SDS011;39307;52.870;13.660;2024-03-29T10:21:02;2.13;;;1.10;;
53411;SDS011;39307;52.870;13.660;2024-03-29T10:23:31;1.70;;;1.00;;
53411;SDS011;39307;52.870;13.660;2024-03-29T10:25:59;1.80;;;1.02;;
53411;SDS011;39307;52.870;13.660;2024-03-29T10:28:35;1.73;;;1.00;;
53411;SDS011;39307;52.870;13.660;2024-03-29T10:31:03;2.57;;;1.10;;
53411;SDS011;39307;52.870;13.660;2024-03-29T10:33:33;1.87;;;1.00;;
53411;SDS011;39307;52.870;13.660;2024-03-29T10:36:01;1.80;;;1.10;;
53411;SDS011;39307;52.870;13.660;2024-03-29T10:38:29;1.92;;;1.10;;
53411;SDS011;39307;52.870;13.660;2024-03-29T10:40:56;1.77;;;1.05;;
53411;SDS011;39307;52.870;13.660;2024-03-29T10:43:23;1.52;;;1.00;;
53411;SDS011;39307;52.870;13.660;2024-03-29T10:45:51;2.03;;;1.00;;
53411;SDS011;39307;52.870;13.660;2024-03-29T10:48:21;2.03;;;1.10;;
53411;SDS011;39307;52.870;13.660;2024-03-29T10:50:48;2.30;;;1.05;;
53411;SDS011;39307;52.870;13.660;2024-03-29T10:53:15;1.98;;;1.00;;
53411;SDS011;39307;52.870;13.660;2024-03-29T10:55:43;2.15;;;1.10;;
53411;SDS011;39307;52.870;13.660;2024-03-29T10:58:10;2.20;;;1.20;;
53411;SDS011;39307;52.870;13.660;2024-03-29T11:00:47;2.10;;;1.17;;
53411;SDS011;39307;52.870;13.660;2024-03-29T11:03:19;1.95;;;1.13;;
53411;SDS011;39307;52.870;13.660;2024-03-29T11:06:01;1.80;;;1.00;;
53411;SDS011;39307;52.870;13.660;2024-03-29T11:08:32;1.70;;;1.10;;
53411;SDS011;39307;52.870;13.660;2024-03-29T11:11:02;1.88;;;1.00;;
53411;SDS011;39307;52.870;13.660;2024-03-29T11:16:07;1.92;;;1.13;;
53411;SDS011;39307;52.870;13.660;2024-03-29T11:18:35;2.00;;;1.05;;
53411;SDS011;39307;52.870;13.660;2024-03-29T11:21:03;2.20;;;1.20;;
53411;SDS011;39307;52.870;13.660;2024-03-29T11:23:32;2.33;;;1.13;;
53411;SDS011;39307;52.870;13.660;2024-03-29T11:25:59;1.85;;;1.00;;
53411;SDS011;39307;52.870;13.660;2024-03-29T11:28:28;1.70;;;1.00;;
53411;SDS011;39307;52.870;13.660;2024-03-29T11:31:00;1.80;;;1.13;;
53411;SDS011;39307;52.870;13.660;2024-03-29T11:33:29;1.83;;;1.00;;
53411;SDS011;39307;52.870;13.660;2024-03-29T11:35:58;2.42;;;1.20;;
53411;SDS011;39307;52.870;13.660;2024-03-29T11:38:57;1.83;;;1.00;;
53411;SDS011;39307;52.870;13.660;2024-03-29T11:41:24;2.00;;;1.10;;
53411;SDS011;39307;52.870;13.660;2024-03-29T11:43:53;2.00;;;1.23;;
53411;SDS011;39307;52.870;13.660;2024-03-29T11:46:20;2.70;;;1.10;;
53411;SDS011;39307;52.870;13.660;2024-03-29T11:48:48;2.00;;;1.00;;
53411;SDS011;39307;52.870;13.660;2024-03-29T11:51:16;2.63;;;1.27;;
53411;SDS011;39307;52.870;13.660;2024-03-29T11:53:45;1.85;;;1.00;;
53411;SDS011;39307;52.870;13.660;2024-03-29T11:56:12;2.00;;;1.10;;
53411;SDS011;39307;52.870;13.660;2024-03-29T11:58:40;1.70;;;1.00;;
53411;SDS011;39307;52.870;13.660;2024-03-29T12:01:07;1.65;;;1.00;;
53411;SDS011;39307;52.870;13.660;2024-03-29T12:03:37;2.30;;;1.10;;
53411;SDS011;39307;52.870;13.660;2024-03-29T12:06:05;2.10;;;1.00;;
53411;SDS011;39307;52.870;13.660;2024-03-29T12:08:33;2.15;;;1.10;;
53411;SDS011;39307;52.870;13.660;2024-03-29T12:11:07;1.70;;;1.10;;
53411;SDS011;39307;52.870;13.660;2024-03-29T12:13:34;1.77;;;0.90;;
53411;SDS011;39307;52.870;13.660;2024-03-29T12:16:01;1.60;;;0.93;;
53411;SDS011;39307;52.870;13.660;2024-03-29T12:18:28;2.00;;;1.00;;
53411;SDS011;39307;52.870;13.660;2024-03-29T12:20:55;1.35;;;1.00;;
53411;SDS011;39307;52.870;13.660;2024-03-29T12:23:22;1.60;;;0.98;;
53411;SDS011;39307;52.870;13.660;2024-03-29T12:25:50;2.03;;;1.00;;
53411;SDS011;39307;52.870;13.660;2024-03-29T12:28:19;1.80;;;1.00;;
53411;SDS011;39307;52.870;13.660;2024-03-29T12:30:47;1.77;;;1.00;;
53411;SDS011;39307;52.870;13.660;2024-03-29T12:33:15;1.88;;;1.05;;
53411;SDS011;39307;52.870;13.660;2024-03-29T12:35:44;2.03;;;1.00;;
53411;SDS011;39307;52.870;13.660;2024-03-29T12:38:12;1.90;;;1.00;;
53411;SDS011;39307;52.870;13.660;2024-03-29T12:40:44;2.03;;;1.10;;
53411;SDS011;39307;52.870;13.660;2024-03-29T12:43:14;1.20;;;0.80;;
53411;SDS011;39307;52.870;13.660;2024-03-29T12:45:48;2.13;;;1.10;;
53411;SDS011;39307;52.870;13.660;2024-03-29T12:48:17;1.80;;;1.00;;
53411;SDS011;39307;52.870;13.660;2024-03-29T12:50:46;1.88;;;1.05;;
53411;SDS011;39307;52.870;13.660;2024-03-29T12:53:14;1.58;;;0.98;;
53411;SDS011;39307;52.870;13.660;2024-03-29T12:55:43;1.38;;;0.90;;
53411;SDS011;39307;52.870;13.660;2024-03-29T12:58:16;1.98;;;1.00;;
53411;SDS011;39307;52.870;13.660;2024-03-29T13:00:44;1.48;;;0.88;;
53411;SDS011;39307;52.870;13.660;2024-03-29T13:03:17;2.15;;;1.10;;
53411;SDS011;39307;52.870;13.660;2024-03-29T13:05:44;1.90;;;1.00;;
53411;SDS011;39307;52.870;13.660;2024-03-29T13:08:12;1.50;;;0.95;;
53411;SDS011;39307;52.870;13.660;2024-03-29T13:10:40;1.65;;;0.88;;
53411;SDS011;39307;52.870;13.660;2024-03-29T13:13:08;1.70;;;1.00;;
53411;SDS011;39307;52.870;13.660;2024-03-29T13:15:36;2.22;;;1.00;;
53411;SDS011;39307;52.870;13.660;2024-03-29T13:18:04;1.38;;;0.80;;
53411;SDS011;39307;52.870;13.660;2024-03-29T13:20:32;1.88;;;0.90;;
53411;SDS011;39307;52.870;13.660;2024-03-29T13:23:02;1.13;;;0.77;;
53411;SDS011;39307;52.870;13.660;2024-03-29T13:25:29;2.03;;;0.98;;
53411;SDS011;39307;52.870;13.660;2024-03-29T13:27:56;1.70;;;0.90;;
53411;SDS011;39307;52.870;13.660;2024-03-29T13:30:24;1.90;;;0.95;;
53411;SDS011;39307;52.870;13.660;2024-03-29T13:32:52;1.77;;;0.90;;
53411;SDS011;39307;52.870;13.660;2024-03-29T13:35:20;1.98;;;1.08;;
53411;SDS011;39307;52.870;13.660;2024-03-29T13:37:48;1.40;;;0.80;;
53411;SDS011;39307;52.870;13.660;2024-03-29T13:40:17;2.05;;;1.00;;
53411;SDS011;39307;52.870;13.660;2024-03-29T13:42:46;1.80;;;1.02;;
53411;SDS011;39307;52.870;13.660;2024-03-29T13:45:13;2.17;;;0.90;;
53411;SDS011;39307;52.870;13.660;2024-03-29T13:47:40;1.73;;;0.80;;
53411;SDS011;39307;52.870;13.660;2024-03-29T13:50:09;2.10;;;1.00;;
53411;SDS011;39307;52.870;13.660;2024-03-29T13:52:36;1.60;;;0.87;;
53411;SDS011;39307;52.870;13.660;2024-03-29T13:55:04;1.25;;;0.75;;
53411;SDS011;39307;52.870;13.660;2024-03-29T13:57:31;1.55;;;0.93;;
53411;SDS011;39307;52.870;13.660;2024-03-29T13:59:58;1.40;;;0.80;;
53411;SDS011;39307;52.870;13.660;2024-03-29T14:02:25;1.60;;;0.82;;
53411;SDS011;39307;52.870;13.660;2024-03-29T14:04:52;1.88;;;0.80;;
53411;SDS011;39307;52.870;13.660;2024-03-29T14:07:19;1.90;;;0.85;;
53411;SDS011;39307;52.870;13.660;2024-03-29T14:09:46;1.20;;;0.77;;
53411;SDS011;39307;52.870;13.660;2024-03-29T14:12:13;1.35;;;0.88;;
53411;SDS011;39307;52.870;13.660;2024-03-29T14:14:40;1.58;;;0.90;;
53411;SDS011;39307;52.870;13.660;2024-03-29T14:17:07;1.90;;;0.90;;
53411;SDS011;39307;52.870;13.660;2024-03-29T14:19:34;1.48;;;0.80;;
53411;SDS011;39307;52.870;13.660;2024-03-29T14:22:02;1.60;;;0.80;;
53411;SDS011;39307;52.870;13.660;2024-03-29T14:24:30;1.45;;;0.80;;
53411;SDS011;39307;52.870;13.660;2024-03-29T14:26:58;1.55;;;0.88;;
53411;SDS011;39307;52.870;13.660;2024-03-29T14:29:25;1.30;;;0.70;;
53411;SDS011;39307;52.870;13.660;2024-03-29T14:31:52;1.65;;;0.95;;
53411;SDS011;39307;52.870;13.660;2024-03-29T14:34:19;1.20;;;0.80;;
53411;SDS011;39307;52.870;13.660;2024-03-29T14:36:46;2.10;;;0.90;;
53411;SDS011;39307;52.870;13.660;2024-03-29T14:39:12;1.42;;;0.85;;